• Join FlightAware (Why Join?)
  • Login
  • US Flag 
02:41PM EDT


 

Airport Tracker/Info


-or-


 

Live Flight TrackerFlight Track Log ✈ EGF4144 ✈ 02-May-2012 ✈ KORD - KCMI

Flight Track Log - Related Links

Times and Time Zones

All times are in EDT time to prevent confusion due to time zone crossing. See the EGF4144 flight status page for this flight to view local times or setup timezone preferences in your user account.

Time Position Orientation Groundspeed Altitude Reporting Facility
EDT Latitude Longitude Course Direction KTS MPH feet Rate Location/Type
05:50PM 41.9612 -87.9018 197° South  Level FlightAware Approximate
05:51PM 41.8771 -87.9167 297° West  Level FlightAware Approximate
05:52PM 41.8833 -87.9333 196° South 205 236 4,100  Level Chicago TRACON
05:53PM 41.8147 -87.9597 193° South 232 267 6,100 1,860 Climbing Chicago Center
05:54PM 41.7461 -87.9806 193° South 245 282 8,400 2,100 Climbing Chicago Center
05:55PM 41.6714 -88.0044 187° South 267 307 10,400 1,680 Climbing Chicago Center
05:56PM 41.5903 -88.0172 186° South 281 323 11,800 1,380 Climbing Chicago Center
05:57PM 41.5008 -88.0303 188° South 308 354 13,200 1,500 Climbing Chicago Center
05:58PM 41.4031 -88.0489 187° South 319 367 14,900 1,560 Climbing Chicago Center
05:59PM 41.3011 -88.0647 187° South 348 400 16,400 1,080 Climbing Chicago Center
06:00PM 41.2075 -88.0803 187° South 370 426 17,100 300 Climbing Chicago Center
06:01PM 41.0969 -88.0989 188° South 386 444 17,100 -420 Level Chicago Center
06:02PM 40.9869 -88.1203 186° South 400 460 16,300 -1,200 Descending Chicago Center
06:03PM 40.8786 -88.1361 186° South 400 460 14,800 -1,500 Descending Chicago Center
06:04PM 40.7725 -88.1517 189° South 400 460 13,300 -1,500 Descending Chicago Center
06:05PM 40.6767 -88.1728 192° South 381 438 11,800 -1,200 Descending Chicago Center
06:06PM 40.5833 -88.1989 196° South 359 413 11,000 -600 Descending Chicago Center
06:07PM 40.4939 -88.2333 196° South 345 397 10,700 -840 Descending Chicago Center
06:08PM 40.4169 -88.2619 197° South 323 372 9,400 -1,560 Descending Chicago Center
06:09PM 40.3444 -88.2903 194° South 293 337 7,600 -1,800 Descending Chicago Center
06:10PM 40.2736 -88.3133 196° South 275 316 5,900 -1,560 Descending Chicago Center
06:11PM 40.2133 -88.3358 188° South 252 290 4,500 -1,440 Descending Chicago Center
06:12PM 40.1447 -88.3478 188° South 233 268 3,100 -1,440 Descending Chicago Center